sensor_id;sensor_type;location;lat;lon;timestamp;temperature;humidity
3564;DHT22;1796;52.388;13.096;2022-09-09T00:01:43;13.30;99.90
3564;DHT22;1796;52.388;13.096;2022-09-09T00:04:24;13.30;99.90
3564;DHT22;1796;52.388;13.096;2022-09-09T00:06:59;13.30;99.90
3564;DHT22;1796;52.388;13.096;2022-09-09T00:09:31;13.30;99.90
3564;DHT22;1796;52.388;13.096;2022-09-09T00:12:11;13.20;99.90
3564;DHT22;1796;52.388;13.096;2022-09-09T00:14:43;13.20;99.90
3564;DHT22;1796;52.388;13.096;2022-09-09T00:17:21;13.20;99.90
3564;DHT22;1796;52.388;13.096;2022-09-09T00:19:56;13.20;99.90
3564;DHT22;1796;52.388;13.096;2022-09-09T00:22:29;13.20;99.90
3564;DHT22;1796;52.388;13.096;2022-09-09T00:25:04;13.20;99.90
3564;DHT22;1796;52.388;13.096;2022-09-09T00:27:40;13.20;99.90
3564;DHT22;1796;52.388;13.096;2022-09-09T00:30:15;13.20;99.90
3564;DHT22;1796;52.388;13.096;2022-09-09T00:32:45;13.30;99.90
3564;DHT22;1796;52.388;13.096;2022-09-09T00:35:17;13.20;99.90
3564;DHT22;1796;52.388;13.096;2022-09-09T00:37:46;13.20;99.90
3564;DHT22;1796;52.388;13.096;2022-09-09T00:40:23;13.20;99.90
3564;DHT22;1796;52.388;13.096;2022-09-09T00:43:00;13.10;99.90
3564;DHT22;1796;52.388;13.096;2022-09-09T00:45:58;13.00;99.90
3564;DHT22;1796;52.388;13.096;2022-09-09T00:48:35;12.90;99.90
3564;DHT22;1796;52.388;13.096;2022-09-09T00:51:11;12.80;99.90
3564;DHT22;1796;52.388;13.096;2022-09-09T00:54:00;12.80;99.90
3564;DHT22;1796;52.388;13.096;2022-09-09T00:56:34;12.70;99.90
3564;DHT22;1796;52.388;13.096;2022-09-09T00:59:18;12.70;99.90
3564;DHT22;1796;52.388;13.096;2022-09-09T01:01:49;12.60;99.90
3564;DHT22;1796;52.388;13.096;2022-09-09T01:04:23;12.70;99.90
3564;DHT22;1796;52.388;13.096;2022-09-09T01:07:00;12.80;99.90
3564;DHT22;1796;52.388;13.096;2022-09-09T01:09:33;12.90;99.90
3564;DHT22;1796;52.388;13.096;2022-09-09T01:12:12;12.90;99.90
3564;DHT22;1796;52.388;13.096;2022-09-09T01:14:44;12.80;99.90
3564;DHT22;1796;52.388;13.096;2022-09-09T01:17:15;12.80;99.90
3564;DHT22;1796;52.388;13.096;2022-09-09T01:19:58;12.70;99.90
3564;DHT22;1796;52.388;13.096;2022-09-09T01:22:34;12.70;99.90
3564;DHT22;1796;52.388;13.096;2022-09-09T01:25:21;12.70;99.90
3564;DHT22;1796;52.388;13.096;2022-09-09T01:27:51;12.70;99.90
3564;DHT22;1796;52.388;13.096;2022-09-09T01:30:19;12.70;99.90
3564;DHT22;1796;52.388;13.096;2022-09-09T01:32:49;12.60;99.90
3564;DHT22;1796;52.388;13.096;2022-09-09T01:35:25;12.50;99.90
3564;DHT22;1796;52.388;13.096;2022-09-09T01:37:54;12.50;99.90
3564;DHT22;1796;52.388;13.096;2022-09-09T01:40:21;12.40;99.90
3564;DHT22;1796;52.388;13.096;2022-09-09T01:42:49;12.50;99.90
3564;DHT22;1796;52.388;13.096;2022-09-09T01:45:16;12.60;99.90
3564;DHT22;1796;52.388;13.096;2022-09-09T01:47:44;12.60;99.90
3564;DHT22;1796;52.388;13.096;2022-09-09T01:50:15;12.50;99.90
3564;DHT22;1796;52.388;13.096;2022-09-09T01:52:43;12.60;99.90
3564;DHT22;1796;52.388;13.096;2022-09-09T01:55:10;12.50;99.90
3564;DHT22;1796;52.388;13.096;2022-09-09T01:57:42;12.60;99.90
3564;DHT22;1796;52.388;13.096;2022-09-09T02:00:14;12.50;99.90
3564;DHT22;1796;52.388;13.096;2022-09-09T02:02:48;12.60;99.90
3564;DHT22;1796;52.388;13.096;2022-09-09T02:05:25;12.60;99.90
3564;DHT22;1796;52.388;13.096;2022-09-09T02:08:00;12.70;99.90
3564;DHT22;1796;52.388;13.096;2022-09-09T02:10:32;12.60;99.90
3564;DHT22;1796;52.388;13.096;2022-09-09T02:13:04;12.60;99.90
3564;DHT22;1796;52.388;13.096;2022-09-09T02:15:39;12.70;99.90
3564;DHT22;1796;52.388;13.096;2022-09-09T02:18:10;12.50;99.90
3564;DHT22;1796;52.388;13.096;2022-09-09T02:20:39;12.50;99.90
3564;DHT22;1796;52.388;13.096;2022-09-09T02:23:07;12.40;99.90
3564;DHT22;1796;52.388;13.096;2022-09-09T02:25:36;12.50;99.90
3564;DHT22;1796;52.388;13.096;2022-09-09T02:28:06;12.40;99.90
3564;DHT22;1796;52.388;13.096;2022-09-09T02:30:37;12.40;99.90
3564;DHT22;1796;52.388;13.096;2022-09-09T02:33:07;12.40;99.90
3564;DHT22;1796;52.388;13.096;2022-09-09T02:35:36;12.30;99.90
3564;DHT22;1796;52.388;13.096;2022-09-09T02:38:07;12.30;99.90
3564;DHT22;1796;52.388;13.096;2022-09-09T02:40:34;12.30;99.90
3564;DHT22;1796;52.388;13.096;2022-09-09T02:43:04;12.30;99.90
3564;DHT22;1796;52.388;13.096;2022-09-09T02:45:42;12.30;99.90
3564;DHT22;1796;52.388;13.096;2022-09-09T02:48:14;12.30;99.90
3564;DHT22;1796;52.388;13.096;2022-09-09T02:50:50;12.10;99.90
3564;DHT22;1796;52.388;13.096;2022-09-09T02:53:24;12.10;99.90
3564;DHT22;1796;52.388;13.096;2022-09-09T02:55:56;12.20;99.90
3564;DHT22;1796;52.388;13.096;2022-09-09T02:58:25;12.20;99.90
3564;DHT22;1796;52.388;13.096;2022-09-09T03:00:53;12.10;99.90
3564;DHT22;1796;52.388;13.096;2022-09-09T03:03:22;12.00;99.90
3564;DHT22;1796;52.388;13.096;2022-09-09T03:05:49;12.00;99.90
3564;DHT22;1796;52.388;13.096;2022-09-09T03:08:16;12.10;99.90
3564;DHT22;1796;52.388;13.096;2022-09-09T03:10:43;12.10;99.90
3564;DHT22;1796;52.388;13.096;2022-09-09T03:13:10;12.10;99.90
3564;DHT22;1796;52.388;13.096;2022-09-09T03:15:40;12.20;99.90
3564;DHT22;1796;52.388;13.096;2022-09-09T03:18:09;12.20;99.90
3564;DHT22;1796;52.388;13.096;2022-09-09T03:20:36;12.30;99.90
3564;DHT22;1796;52.388;13.096;2022-09-09T03:23:03;12.30;99.90
3564;DHT22;1796;52.388;13.096;2022-09-09T03:25:29;12.20;99.90
3564;DHT22;1796;52.388;13.096;2022-09-09T03:27:57;12.20;99.90
3564;DHT22;1796;52.388;13.096;2022-09-09T03:30:28;12.30;99.90
3564;DHT22;1796;52.388;13.096;2022-09-09T03:32:55;12.20;99.90
3564;DHT22;1796;52.388;13.096;2022-09-09T03:35:23;12.10;99.90
3564;DHT22;1796;52.388;13.096;2022-09-09T03:37:50;12.10;99.90
3564;DHT22;1796;52.388;13.096;2022-09-09T03:40:17;12.20;99.90
3564;DHT22;1796;52.388;13.096;2022-09-09T03:42:44;12.10;99.90
3564;DHT22;1796;52.388;13.096;2022-09-09T03:45:12;12.10;99.90
3564;DHT22;1796;52.388;13.096;2022-09-09T03:47:38;12.20;99.90
3564;DHT22;1796;52.388;13.096;2022-09-09T03:50:06;12.20;99.90
3564;DHT22;1796;52.388;13.096;2022-09-09T03:52:37;12.10;99.90
3564;DHT22;1796;52.388;13.096;2022-09-09T03:55:05;12.00;99.90
3564;DHT22;1796;52.388;13.096;2022-09-09T03:57:34;12.10;99.90
3564;DHT22;1796;52.388;13.096;2022-09-09T04:00:02;12.10;99.90
3564;DHT22;1796;52.388;13.096;2022-09-09T04:02:30;12.00;99.90
3564;DHT22;1796;52.388;13.096;2022-09-09T04:04:56;12.00;99.90
3564;DHT22;1796;52.388;13.096;2022-09-09T04:07:23;12.00;99.90
3564;DHT22;1796;52.388;13.096;2022-09-09T04:09:52;11.90;99.90
3564;DHT22;1796;52.388;13.096;2022-09-09T04:12:20;11.90;99.90
3564;DHT22;1796;52.388;13.096;2022-09-09T04:14:47;11.90;99.90
3564;DHT22;1796;52.388;13.096;2022-09-09T04:17:14;11.90;99.90
3564;DHT22;1796;52.388;13.096;2022-09-09T04:19:41;11.90;99.90
3564;DHT22;1796;52.388;13.096;2022-09-09T04:22:08;11.90;99.90
3564;DHT22;1796;52.388;13.096;2022-09-09T04:24:36;11.90;99.90
3564;DHT22;1796;52.388;13.096;2022-09-09T04:27:04;11.90;99.90
3564;DHT22;1796;52.388;13.096;2022-09-09T04:29:31;12.00;99.90
3564;DHT22;1796;52.388;13.096;2022-09-09T04:31:58;11.90;99.90
3564;DHT22;1796;52.388;13.096;2022-09-09T04:34:25;11.90;99.90
3564;DHT22;1796;52.388;13.096;2022-09-09T04:36:52;11.80;99.90
3564;DHT22;1796;52.388;13.096;2022-09-09T04:39:19;11.70;99.90
3564;DHT22;1796;52.388;13.096;2022-09-09T04:41:46;11.70;99.90
3564;DHT22;1796;52.388;13.096;2022-09-09T04:44:15;11.70;99.90
3564;DHT22;1796;52.388;13.096;2022-09-09T04:46:42;11.70;99.90
3564;DHT22;1796;52.388;13.096;2022-09-09T04:49:09;11.80;99.90
3564;DHT22;1796;52.388;13.096;2022-09-09T04:51:35;11.80;99.90
3564;DHT22;1796;52.388;13.096;2022-09-09T04:54:02;12.00;99.90
3564;DHT22;1796;52.388;13.096;2022-09-09T04:56:31;12.20;99.90
3564;DHT22;1796;52.388;13.096;2022-09-09T04:58:58;12.50;99.90
3564;DHT22;1796;52.388;13.096;2022-09-09T05:01:26;12.60;99.90
3564;DHT22;1796;52.388;13.096;2022-09-09T05:03:53;12.90;99.90
3564;DHT22;1796;52.388;13.096;2022-09-09T05:06:21;13.10;99.90
3564;DHT22;1796;52.388;13.096;2022-09-09T05:08:48;13.20;99.90
3564;DHT22;1796;52.388;13.096;2022-09-09T05:11:16;13.50;99.90
3564;DHT22;1796;52.388;13.096;2022-09-09T05:13:44;13.70;99.90
3564;DHT22;1796;52.388;13.096;2022-09-09T05:16:11;13.80;99.90
3564;DHT22;1796;52.388;13.096;2022-09-09T05:18:40;14.00;99.90
3564;DHT22;1796;52.388;13.096;2022-09-09T05:21:08;14.10;99.90
3564;DHT22;1796;52.388;13.096;2022-09-09T05:23:36;14.00;99.90
3564;DHT22;1796;52.388;13.096;2022-09-09T05:26:04;14.20;99.90
3564;DHT22;1796;52.388;13.096;2022-09-09T05:28:33;14.20;99.90
3564;DHT22;1796;52.388;13.096;2022-09-09T05:31:02;14.40;99.90
3564;DHT22;1796;52.388;13.096;2022-09-09T05:33:30;14.70;99.90
3564;DHT22;1796;52.388;13.096;2022-09-09T05:36:02;14.90;99.90
3564;DHT22;1796;52.388;13.096;2022-09-09T05:38:30;15.00;99.90
3564;DHT22;1796;52.388;13.096;2022-09-09T05:40:58;15.00;99.90
3564;DHT22;1796;52.388;13.096;2022-09-09T05:43:26;15.00;99.90
3564;DHT22;1796;52.388;13.096;2022-09-09T05:46:00;15.00;99.90
3564;DHT22;1796;52.388;13.096;2022-09-09T05:48:28;15.20;99.90
3564;DHT22;1796;52.388;13.096;2022-09-09T05:50:56;15.40;99.90
3564;DHT22;1796;52.388;13.096;2022-09-09T05:53:25;15.40;99.90
3564;DHT22;1796;52.388;13.096;2022-09-09T05:55:59;15.50;99.90
3564;DHT22;1796;52.388;13.096;2022-09-09T05:58:26;16.10;99.90
3564;DHT22;1796;52.388;13.096;2022-09-09T06:00:53;16.30;99.90
3564;DHT22;1796;52.388;13.096;2022-09-09T06:03:26;16.70;99.90
3564;DHT22;1796;52.388;13.096;2022-09-09T06:05:57;16.80;99.90
3564;DHT22;1796;52.388;13.096;2022-09-09T06:08:26;17.10;99.90
3564;DHT22;1796;52.388;13.096;2022-09-09T06:10:53;17.10;99.90
3564;DHT22;1796;52.388;13.096;2022-09-09T06:13:28;17.20;99.90
3564;DHT22;1796;52.388;13.096;2022-09-09T06:15:55;17.40;99.90
3564;DHT22;1796;52.388;13.096;2022-09-09T06:18:22;17.60;99.90
3564;DHT22;1796;52.388;13.096;2022-09-09T06:20:58;17.30;99.90
3564;DHT22;1796;52.388;13.096;2022-09-09T06:23:28;17.00;99.90
3564;DHT22;1796;52.388;13.096;2022-09-09T06:26:02;16.60;99.90
3564;DHT22;1796;52.388;13.096;2022-09-09T06:28:31;16.40;99.90
3564;DHT22;1796;52.388;13.096;2022-09-09T06:30:58;16.30;99.90
3564;DHT22;1796;52.388;13.096;2022-09-09T06:33:25;16.70;99.90
3564;DHT22;1796;52.388;13.096;2022-09-09T06:35:53;17.30;99.90
3564;DHT22;1796;52.388;13.096;2022-09-09T06:38:20;17.80;99.90
3564;DHT22;1796;52.388;13.096;2022-09-09T06:40:52;18.20;99.90
3564;DHT22;1796;52.388;13.096;2022-09-09T06:43:20;18.40;99.90
3564;DHT22;1796;52.388;13.096;2022-09-09T06:45:53;18.90;99.90
3564;DHT22;1796;52.388;13.096;2022-09-09T06:48:23;19.10;99.90
3564;DHT22;1796;52.388;13.096;2022-09-09T06:50:51;19.50;99.90
3564;DHT22;1796;52.388;13.096;2022-09-09T06:53:19;19.80;99.90
3564;DHT22;1796;52.388;13.096;2022-09-09T06:55:46;20.40;99.90
3564;DHT22;1796;52.388;13.096;2022-09-09T06:58:14;20.40;99.90
3564;DHT22;1796;52.388;13.096;2022-09-09T07:00:41;20.60;99.90
3564;DHT22;1796;52.388;13.096;2022-09-09T07:03:09;20.90;99.90
3564;DHT22;1796;52.388;13.096;2022-09-09T07:05:36;21.30;99.90
3564;DHT22;1796;52.388;13.096;2022-09-09T07:08:03;21.30;99.90
3564;DHT22;1796;52.388;13.096;2022-09-09T07:10:31;21.40;99.90
3564;DHT22;1796;52.388;13.096;2022-09-09T07:12:59;20.80;99.90
3564;DHT22;1796;52.388;13.096;2022-09-09T07:15:29;20.80;99.90
3564;DHT22;1796;52.388;13.096;2022-09-09T07:18:00;20.70;99.90
3564;DHT22;1796;52.388;13.096;2022-09-09T07:20:27;20.60;99.90
3564;DHT22;1796;52.388;13.096;2022-09-09T07:22:55;20.20;99.90
3564;DHT22;1796;52.388;13.096;2022-09-09T07:25:24;20.10;99.90
3564;DHT22;1796;52.388;13.096;2022-09-09T07:27:52;19.90;99.90
3564;DHT22;1796;52.388;13.096;2022-09-09T07:30:19;19.40;99.90
3564;DHT22;1796;52.388;13.096;2022-09-09T07:32:47;19.40;99.90
3564;DHT22;1796;52.388;13.096;2022-09-09T07:35:14;19.40;99.90
3564;DHT22;1796;52.388;13.096;2022-09-09T07:37:40;19.40;99.90
3564;DHT22;1796;52.388;13.096;2022-09-09T07:40:08;19.40;99.90
3564;DHT22;1796;52.388;13.096;2022-09-09T07:42:35;19.70;99.90
3564;DHT22;1796;52.388;13.096;2022-09-09T07:45:03;19.70;99.90
3564;DHT22;1796;52.388;13.096;2022-09-09T07:47:31;20.10;99.90
3564;DHT22;1796;52.388;13.096;2022-09-09T07:49:59;20.40;99.90
3564;DHT22;1796;52.388;13.096;2022-09-09T07:52:27;20.50;99.90
3564;DHT22;1796;52.388;13.096;2022-09-09T07:54:54;20.50;99.90
3564;DHT22;1796;52.388;13.096;2022-09-09T07:57:22;20.40;99.90
3564;DHT22;1796;52.388;13.096;2022-09-09T07:59:48;20.10;99.90
3564;DHT22;1796;52.388;13.096;2022-09-09T08:02:16;20.30;99.90
3564;DHT22;1796;52.388;13.096;2022-09-09T08:04:43;20.40;99.90
3564;DHT22;1796;52.388;13.096;2022-09-09T08:07:11;20.30;99.90
3564;DHT22;1796;52.388;13.096;2022-09-09T08:09:38;20.40;99.90
3564;DHT22;1796;52.388;13.096;2022-09-09T08:12:06;20.60;99.90
3564;DHT22;1796;52.388;13.096;2022-09-09T08:14:33;20.50;99.90
3564;DHT22;1796;52.388;13.096;2022-09-09T08:17:00;20.60;99.90
3564;DHT22;1796;52.388;13.096;2022-09-09T08:19:27;20.60;99.90
3564;DHT22;1796;52.388;13.096;2022-09-09T08:21:55;20.60;99.90
3564;DHT22;1796;52.388;13.096;2022-09-09T08:24:23;20.80;99.90
3564;DHT22;1796;52.388;13.096;2022-09-09T08:26:51;20.80;99.90
3564;DHT22;1796;52.388;13.096;2022-09-09T08:29:19;20.60;99.90
3564;DHT22;1796;52.388;13.096;2022-09-09T08:31:47;20.50;99.90
3564;DHT22;1796;52.388;13.096;2022-09-09T08:34:14;20.50;99.90
3564;DHT22;1796;52.388;13.096;2022-09-09T08:36:43;20.40;99.90
3564;DHT22;1796;52.388;13.096;2022-09-09T08:39:12;20.50;99.90
3564;DHT22;1796;52.388;13.096;2022-09-09T08:42:02;20.60;99.90
3564;DHT22;1796;52.388;13.096;2022-09-09T08:44:41;20.60;99.90
3564;DHT22;1796;52.388;13.096;2022-09-09T08:47:16;20.40;99.90
3564;DHT22;1796;52.388;13.096;2022-09-09T08:49:59;20.30;99.90
3564;DHT22;1796;52.388;13.096;2022-09-09T08:52:30;20.50;99.90
3564;DHT22;1796;52.388;13.096;2022-09-09T08:57:52;20.50;99.90
3564;DHT22;1796;52.388;13.096;2022-09-09T09:00:20;20.50;99.90
3564;DHT22;1796;52.388;13.096;2022-09-09T09:02:55;20.70;99.90
3564;DHT22;1796;52.388;13.096;2022-09-09T09:05:31;20.90;99.90
3564;DHT22;1796;52.388;13.096;2022-09-09T09:08:10;21.10;99.90
3564;DHT22;1796;52.388;13.096;2022-09-09T09:10:45;21.20;99.90
3564;DHT22;1796;52.388;13.096;2022-09-09T09:13:20;21.30;99.90
3564;DHT22;1796;52.388;13.096;2022-09-09T09:15:51;21.70;99.90
3564;DHT22;1796;52.388;13.096;2022-09-09T09:18:20;21.90;99.90
3564;DHT22;1796;52.388;13.096;2022-09-09T09:21:00;22.00;99.90
3564;DHT22;1796;52.388;13.096;2022-09-09T09:23:33;22.00;99.90
3564;DHT22;1796;52.388;13.096;2022-09-09T09:26:09;21.80;99.90
3564;DHT22;1796;52.388;13.096;2022-09-09T09:28:38;21.80;99.90
3564;DHT22;1796;52.388;13.096;2022-09-09T09:31:08;21.80;99.90
3564;DHT22;1796;52.388;13.096;2022-09-09T09:33:46;21.90;99.90
3564;DHT22;1796;52.388;13.096;2022-09-09T09:36:13;21.70;99.90
3564;DHT22;1796;52.388;13.096;2022-09-09T09:38:52;21.90;99.90
3564;DHT22;1796;52.388;13.096;2022-09-09T09:41:30;22.00;99.90
3564;DHT22;1796;52.388;13.096;2022-09-09T09:43:59;22.00;99.90
3564;DHT22;1796;52.388;13.096;2022-09-09T09:46:27;22.00;99.90
3564;DHT22;1796;52.388;13.096;2022-09-09T09:48:58;22.00;99.90
3564;DHT22;1796;52.388;13.096;2022-09-09T09:51:26;22.10;99.90
3564;DHT22;1796;52.388;13.096;2022-09-09T09:53:54;22.00;99.90
3564;DHT22;1796;52.388;13.096;2022-09-09T09:56:27;22.10;99.90
3564;DHT22;1796;52.388;13.096;2022-09-09T09:58:55;22.10;99.90
3564;DHT22;1796;52.388;13.096;2022-09-09T10:01:25;22.20;99.90
3564;DHT22;1796;52.388;13.096;2022-09-09T10:03:54;22.30;99.90
3564;DHT22;1796;52.388;13.096;2022-09-09T10:06:30;22.10;99.90
3564;DHT22;1796;52.388;13.096;2022-09-09T10:08:59;22.10;99.90
3564;DHT22;1796;52.388;13.096;2022-09-09T10:11:39;22.10;99.90
3564;DHT22;1796;52.388;13.096;2022-09-09T10:14:17;22.10;99.90
3564;DHT22;1796;52.388;13.096;2022-09-09T10:16:59;22.00;99.90
3564;DHT22;1796;52.388;13.096;2022-09-09T10:19:32;22.00;99.90
3564;DHT22;1796;52.388;13.096;2022-09-09T10:22:09;22.10;99.90
3564;DHT22;1796;52.388;13.096;2022-09-09T10:24:51;22.20;99.90
3564;DHT22;1796;52.388;13.096;2022-09-09T10:27:23;22.30;99.90
3564;DHT22;1796;52.388;13.096;2022-09-09T10:30:12;22.00;99.90
3564;DHT22;1796;52.388;13.096;2022-09-09T10:32:48;21.80;99.90
3564;DHT22;1796;52.388;13.096;2022-09-09T10:35:27;21.80;99.90
3564;DHT22;1796;52.388;13.096;2022-09-09T10:38:10;22.00;99.90
3564;DHT22;1796;52.388;13.096;2022-09-09T10:40:43;22.10;99.90
3564;DHT22;1796;52.388;13.096;2022-09-09T10:43:24;22.20;99.90
3564;DHT22;1796;52.388;13.096;2022-09-09T10:46:04;22.10;99.90
3564;DHT22;1796;52.388;13.096;2022-09-09T10:48:50;22.20;99.90
3564;DHT22;1796;52.388;13.096;2022-09-09T10:51:28;22.20;99.90
3564;DHT22;1796;52.388;13.096;2022-09-09T10:54:24;22.30;99.90
3564;DHT22;1796;52.388;13.096;2022-09-09T10:56:58;22.40;99.90
3564;DHT22;1796;52.388;13.096;2022-09-09T10:59:31;22.40;99.90
3564;DHT22;1796;52.388;13.096;2022-09-09T11:02:03;22.30;99.90
3564;DHT22;1796;52.388;13.096;2022-09-09T11:04:39;22.30;99.90
3564;DHT22;1796;52.388;13.096;2022-09-09T11:07:10;22.40;99.90
3564;DHT22;1796;52.388;13.096;2022-09-09T11:09:46;22.50;99.90
3564;DHT22;1796;52.388;13.096;2022-09-09T11:12:18;22.50;99.90
3564;DHT22;1796;52.388;13.096;2022-09-09T11:14:48;22.50;99.90
3564;DHT22;1796;52.388;13.096;2022-09-09T11:17:20;22.60;99.90
3564;DHT22;1796;52.388;13.096;2022-09-09T11:19:49;22.70;99.90
3564;DHT22;1796;52.388;13.096;2022-09-09T11:22:24;22.80;99.90
3564;DHT22;1796;52.388;13.096;2022-09-09T11:24:58;23.00;99.90
3564;DHT22;1796;52.388;13.096;2022-09-09T11:27:29;23.20;99.90
3564;DHT22;1796;52.388;13.096;2022-09-09T11:30:17;23.40;99.90
3564;DHT22;1796;52.388;13.096;2022-09-09T11:33:16;23.50;99.90
3564;DHT22;1796;52.388;13.096;2022-09-09T11:35:58;23.50;99.90
3564;DHT22;1796;52.388;13.096;2022-09-09T11:38:29;23.40;99.90
3564;DHT22;1796;52.388;13.096;2022-09-09T11:41:02;23.60;99.90
3564;DHT22;1796;52.388;13.096;2022-09-09T11:43:39;23.90;99.90
3564;DHT22;1796;52.388;13.096;2022-09-09T11:46:07;24.30;99.90
3564;DHT22;1796;52.388;13.096;2022-09-09T11:48:36;24.40;99.90
3564;DHT22;1796;52.388;13.096;2022-09-09T11:51:07;24.40;99.90
3564;DHT22;1796;52.388;13.096;2022-09-09T11:53:35;24.30;99.90
3564;DHT22;1796;52.388;13.096;2022-09-09T11:56:13;24.20;99.90
3564;DHT22;1796;52.388;13.096;2022-09-09T11:58:55;24.10;99.90
3564;DHT22;1796;52.388;13.096;2022-09-09T12:01:37;24.10;99.90
3564;DHT22;1796;52.388;13.096;2022-09-09T12:04:17;24.00;99.90
3564;DHT22;1796;52.388;13.096;2022-09-09T12:06:50;23.90;99.90
3564;DHT22;1796;52.388;13.096;2022-09-09T12:09:22;23.70;99.90
3564;DHT22;1796;52.388;13.096;2022-09-09T12:11:50;23.60;99.90
3564;DHT22;1796;52.388;13.096;2022-09-09T12:14:22;23.60;99.90
3564;DHT22;1796;52.388;13.096;2022-09-09T12:16:49;23.60;99.90
3564;DHT22;1796;52.388;13.096;2022-09-09T12:19:19;23.60;99.90
3564;DHT22;1796;52.388;13.096;2022-09-09T12:21:57;23.50;99.90
3564;DHT22;1796;52.388;13.096;2022-09-09T12:24:32;23.40;99.90
3564;DHT22;1796;52.388;13.096;2022-09-09T12:27:07;23.50;99.90
3564;DHT22;1796;52.388;13.096;2022-09-09T12:29:43;23.50;99.90
3564;DHT22;1796;52.388;13.096;2022-09-09T12:32:16;23.40;99.90
3564;DHT22;1796;52.388;13.096;2022-09-09T12:34:47;23.30;99.90
3564;DHT22;1796;52.388;13.096;2022-09-09T12:37:23;23.40;99.90
3564;DHT22;1796;52.388;13.096;2022-09-09T12:39:54;23.50;99.90
3564;DHT22;1796;52.388;13.096;2022-09-09T12:42:22;23.50;99.90
3564;DHT22;1796;52.388;13.096;2022-09-09T12:44:54;23.50;99.90
3564;DHT22;1796;52.388;13.096;2022-09-09T12:47:24;23.50;99.90
3564;DHT22;1796;52.388;13.096;2022-09-09T12:49:52;23.50;99.90
3564;DHT22;1796;52.388;13.096;2022-09-09T12:52:27;23.50;99.90
3564;DHT22;1796;52.388;13.096;2022-09-09T12:54:57;23.50;99.90
3564;DHT22;1796;52.388;13.096;2022-09-09T12:57:26;23.60;99.90
3564;DHT22;1796;52.388;13.096;2022-09-09T13:00:05;23.70;99.90
3564;DHT22;1796;52.388;13.096;2022-09-09T13:02:32;23.60;99.90
3564;DHT22;1796;52.388;13.096;2022-09-09T13:05:08;23.60;99.90
3564;DHT22;1796;52.388;13.096;2022-09-09T13:07:41;23.50;99.90
3564;DHT22;1796;52.388;13.096;2022-09-09T13:10:11;23.40;99.90
3564;DHT22;1796;52.388;13.096;2022-09-09T13:12:38;23.20;99.90
3564;DHT22;1796;52.388;13.096;2022-09-09T13:15:13;23.00;99.90
3564;DHT22;1796;52.388;13.096;2022-09-09T13:17:41;22.90;99.90
3564;DHT22;1796;52.388;13.096;2022-09-09T13:20:16;22.80;99.90
3564;DHT22;1796;52.388;13.096;2022-09-09T13:22:46;22.60;99.90
3564;DHT22;1796;52.388;13.096;2022-09-09T13:25:19;22.30;99.90
3564;DHT22;1796;52.388;13.096;2022-09-09T13:27:54;22.20;99.90
3564;DHT22;1796;52.388;13.096;2022-09-09T13:30:23;22.20;99.90
3564;DHT22;1796;52.388;13.096;2022-09-09T13:33:01;22.40;99.90
3564;DHT22;1796;52.388;13.096;2022-09-09T13:35:29;22.80;99.90
3564;DHT22;1796;52.388;13.096;2022-09-09T13:37:58;23.30;99.90
3564;DHT22;1796;52.388;13.096;2022-09-09T13:40:25;23.70;99.90
3564;DHT22;1796;52.388;13.096;2022-09-09T13:42:55;24.00;99.90
3564;DHT22;1796;52.388;13.096;2022-09-09T13:45:25;24.20;99.90
3564;DHT22;1796;52.388;13.096;2022-09-09T13:47:53;24.50;99.90
3564;DHT22;1796;52.388;13.096;2022-09-09T13:50:22;24.50;99.90
3564;DHT22;1796;52.388;13.096;2022-09-09T13:52:49;24.60;99.90
3564;DHT22;1796;52.388;13.096;2022-09-09T13:55:21;24.40;99.90
3564;DHT22;1796;52.388;13.096;2022-09-09T13:57:53;24.30;99.90
3564;DHT22;1796;52.388;13.096;2022-09-09T14:00:21;24.00;99.90
3564;DHT22;1796;52.388;13.096;2022-09-09T14:02:48;23.90;99.90
3564;DHT22;1796;52.388;13.096;2022-09-09T14:05:16;23.60;99.90
3564;DHT22;1796;52.388;13.096;2022-09-09T14:07:43;23.70;99.90
3564;DHT22;1796;52.388;13.096;2022-09-09T14:10:11;23.80;99.90
3564;DHT22;1796;52.388;13.096;2022-09-09T14:12:39;23.90;99.90
3564;DHT22;1796;52.388;13.096;2022-09-09T14:15:07;24.00;99.90
3564;DHT22;1796;52.388;13.096;2022-09-09T14:17:36;24.10;99.90
3564;DHT22;1796;52.388;13.096;2022-09-09T14:20:03;24.20;99.90
3564;DHT22;1796;52.388;13.096;2022-09-09T14:22:33;24.20;99.90
3564;DHT22;1796;52.388;13.096;2022-09-09T14:25:01;24.20;99.90
3564;DHT22;1796;52.388;13.096;2022-09-09T14:27:28;24.20;99.90
3564;DHT22;1796;52.388;13.096;2022-09-09T14:29:57;24.30;99.90
3564;DHT22;1796;52.388;13.096;2022-09-09T14:32:25;24.20;99.90
3564;DHT22;1796;52.388;13.096;2022-09-09T14:34:52;24.20;99.90
3564;DHT22;1796;52.388;13.096;2022-09-09T14:37:19;24.30;99.90
3564;DHT22;1796;52.388;13.096;2022-09-09T14:39:47;24.20;99.90
3564;DHT22;1796;52.388;13.096;2022-09-09T14:42:16;24.30;99.90
3564;DHT22;1796;52.388;13.096;2022-09-09T14:44:42;24.20;99.90
3564;DHT22;1796;52.388;13.096;2022-09-09T14:47:11;24.30;99.90
3564;DHT22;1796;52.388;13.096;2022-09-09T14:49:37;24.20;99.90
3564;DHT22;1796;52.388;13.096;2022-09-09T14:52:04;24.20;99.90
3564;DHT22;1796;52.388;13.096;2022-09-09T14:54:32;24.20;99.90
3564;DHT22;1796;52.388;13.096;2022-09-09T14:56:59;24.20;99.90
3564;DHT22;1796;52.388;13.096;2022-09-09T14:59:25;24.30;99.90
3564;DHT22;1796;52.388;13.096;2022-09-09T15:01:53;24.30;99.90
3564;DHT22;1796;52.388;13.096;2022-09-09T15:04:21;24.40;99.90
3564;DHT22;1796;52.388;13.096;2022-09-09T15:06:48;24.40;99.90
3564;DHT22;1796;52.388;13.096;2022-09-09T15:09:17;24.40;99.90
3564;DHT22;1796;52.388;13.096;2022-09-09T15:11:44;24.60;99.90
3564;DHT22;1796;52.388;13.096;2022-09-09T15:14:11;24.60;99.90
3564;DHT22;1796;52.388;13.096;2022-09-09T15:16:39;24.50;99.90
3564;DHT22;1796;52.388;13.096;2022-09-09T15:19:06;24.60;99.90
3564;DHT22;1796;52.388;13.096;2022-09-09T15:21:37;24.50;99.90
3564;DHT22;1796;52.388;13.096;2022-09-09T15:24:05;24.10;99.90
3564;DHT22;1796;52.388;13.096;2022-09-09T15:26:32;23.90;99.90
3564;DHT22;1796;52.388;13.096;2022-09-09T15:28:59;23.70;99.90
3564;DHT22;1796;52.388;13.096;2022-09-09T15:31:28;23.50;99.90
3564;DHT22;1796;52.388;13.096;2022-09-09T15:33:57;23.20;99.90
3564;DHT22;1796;52.388;13.096;2022-09-09T15:36:27;23.00;99.90
3564;DHT22;1796;52.388;13.096;2022-09-09T15:38:56;22.80;99.90
3564;DHT22;1796;52.388;13.096;2022-09-09T15:41:23;22.60;99.90
3564;DHT22;1796;52.388;13.096;2022-09-09T15:43:52;22.40;99.90
3564;DHT22;1796;52.388;13.096;2022-09-09T15:46:29;22.40;99.90
3564;DHT22;1796;52.388;13.096;2022-09-09T15:48:58;22.40;99.90
3564;DHT22;1796;52.388;13.096;2022-09-09T15:51:25;22.30;99.90
3564;DHT22;1796;52.388;13.096;2022-09-09T15:53:58;22.30;99.90
3564;DHT22;1796;52.388;13.096;2022-09-09T15:56:27;22.20;99.90
3564;DHT22;1796;52.388;13.096;2022-09-09T15:58:56;22.10;99.90
3564;DHT22;1796;52.388;13.096;2022-09-09T16:01:24;22.00;99.90
3564;DHT22;1796;52.388;13.096;2022-09-09T16:03:51;21.90;99.90
3564;DHT22;1796;52.388;13.096;2022-09-09T16:06:19;21.80;99.90
3564;DHT22;1796;52.388;13.096;2022-09-09T16:08:48;21.80;99.90
3564;DHT22;1796;52.388;13.096;2022-09-09T16:11:19;21.70;99.90